Springfield, Michigan
Current Conditions -  °F | °C
As of 7:53 AM on Monday 20 Oct 2014 (Local Time) from KBTL Reporting Station
Broken Clouds Broken Clouds  
Wind Chill: 43°   Ceiling: 6000
Heat Index: 48°   Visibility: 10mi
Dew Point: 43°   Wind: 10mph
Humidity: 83%   Direction: 190°S
Pressure: 29.83"   Gusts: NA
Location:  42.2966°N, 85.2371°W
Report Text: KBTL 201153Z 19009KT 10SM BKN060 09/06 A2983 RMK AO2 SLP103 60004 70004 T00890061 10094 20083 58010
Loading
Personal Weather Stations






























Interactive Weather Map New forecast layout! Learn more

10-Day Weather Forecast

Advertisements
Track Severe Weather on mobile